createdAt,value
2019-04-05T00:02:10.993Z,62.83
2019-04-05T00:04:44.363Z,62.75
2019-04-05T00:07:17.706Z,62.63
2019-04-05T00:09:51.112Z,62.45
2019-04-05T00:12:24.501Z,62.35
2019-04-05T00:14:57.848Z,62.50
2019-04-05T00:17:31.283Z,62.27
2019-04-05T00:20:07.588Z,62.19
2019-04-05T00:22:40.980Z,62.39
2019-04-05T00:25:14.406Z,62.51
2019-04-05T00:27:47.745Z,62.47
2019-04-05T00:30:21.236Z,62.99
2019-04-05T00:32:54.618Z,62.66
2019-04-05T00:35:28.045Z,62.55
2019-04-05T00:38:01.428Z,62.37
2019-04-05T00:40:34.797Z,62.27
2019-04-05T00:43:08.119Z,62.08
2019-04-05T00:45:41.487Z,62.27
2019-04-05T00:48:15.807Z,62.41
2019-04-05T00:50:49.255Z,62.57
2019-04-05T00:53:22.665Z,62.47
2019-04-05T00:55:56.022Z,62.51
2019-04-05T00:58:29.431Z,62.44
2019-04-05T01:01:02.887Z,62.13
2019-04-05T01:03:36.246Z,62.12
2019-04-05T01:06:09.603Z,62.01
2019-04-05T01:08:43.142Z,62.03
2019-04-05T01:11:16.615Z,61.96
2019-04-05T01:13:50.507Z,61.88
2019-04-05T01:16:23.941Z,61.94
2019-04-05T01:18:57.280Z,62.40
2019-04-05T01:21:33.832Z,62.33
2019-04-05T01:24:07.935Z,62.07
2019-04-05T01:26:42.825Z,62.09
2019-04-05T01:29:16.258Z,62.02
2019-04-05T01:31:49.684Z,62.08
2019-04-05T01:34:23.003Z,62.21
2019-04-05T01:36:56.428Z,61.98
2019-04-05T01:39:29.765Z,62.13
2019-04-05T01:42:03.198Z,62.29
2019-04-05T01:44:36.635Z,62.12
2019-04-05T01:47:10.069Z,62.33
2019-04-05T01:49:43.458Z,62.39
2019-04-05T01:52:16.899Z,62.23
2019-04-05T01:54:50.240Z,62.11
2019-04-05T01:57:23.645Z,62.21
2019-04-05T01:59:57.014Z,62.33
2019-04-05T02:02:30.389Z,62.14
2019-04-05T02:05:06.055Z,62.50
2019-04-05T02:07:39.593Z,62.59
2019-04-05T02:10:13.313Z,62.48
2019-04-05T02:12:46.803Z,62.18
2019-04-05T02:15:28.449Z,62.00
2019-04-05T02:18:01.914Z,61.77
2019-04-05T02:20:35.375Z,61.92
2019-04-05T02:23:08.770Z,61.79
2019-04-05T02:25:42.193Z,61.68
2019-04-05T02:28:15.672Z,61.71
2019-04-05T02:30:49.095Z,62.12
2019-04-05T02:33:22.484Z,61.98
2019-04-05T02:35:55.944Z,62.05
2019-04-05T02:38:29.275Z,61.89
2019-04-05T02:41:03.491Z,61.72
2019-04-05T02:43:38.589Z,61.76
2019-04-05T02:46:23.625Z,61.94
2019-04-05T02:48:47.941Z,62.15
2019-04-05T02:51:23.100Z,62.22
2019-04-05T02:53:57.889Z,62.10
2019-04-05T02:56:31.666Z,62.18
2019-04-05T02:59:05.912Z,62.33
2019-04-05T03:01:39.383Z,62.05
2019-04-05T03:04:13.265Z,62.42
2019-04-05T03:06:47.043Z,62.39
2019-04-05T03:09:20.872Z,62.08
2019-04-05T03:11:54.870Z,62.16
2019-04-05T03:14:28.587Z,62.29
2019-04-05T03:17:02.530Z,62.21
2019-04-05T03:19:37.644Z,62.00
2019-04-05T03:22:12.561Z,61.76
2019-04-05T03:24:46.664Z,61.86
2019-04-05T03:27:22.508Z,61.77
2019-04-05T03:29:56.523Z,61.94
2019-04-05T03:32:29.984Z,61.78
2019-04-05T03:35:03.852Z,61.58
2019-04-05T03:37:37.294Z,61.89
2019-04-05T03:40:10.726Z,61.92
2019-04-05T03:42:44.237Z,61.83
2019-04-05T03:45:17.555Z,61.82
2019-04-05T03:47:51.012Z,62.07
2019-04-05T03:50:24.432Z,61.80
2019-04-05T03:52:58.076Z,61.92
2019-04-05T03:55:31.665Z,61.74
2019-04-05T03:58:05.420Z,61.94
2019-04-05T04:00:39.242Z,60.72
2019-04-05T04:03:12.841Z,61.63
2019-04-05T04:05:46.235Z,61.77
2019-04-05T04:08:23.277Z,61.95
2019-04-05T04:10:55.584Z,61.81
2019-04-05T04:13:29.295Z,62.04
2019-04-05T04:16:02.706Z,62.01
2019-04-05T04:18:36.439Z,62.15
2019-04-05T04:21:15.878Z,61.95
2019-04-05T04:23:49.310Z,61.95
2019-04-05T04:26:22.776Z,61.99
2019-04-05T04:28:56.417Z,62.03
2019-04-05T04:31:29.917Z,61.83
2019-04-05T04:34:03.275Z,61.84
2019-04-05T04:36:36.597Z,61.72
2019-04-05T04:39:10.033Z,61.88
2019-04-05T04:41:43.802Z,61.96
2019-04-05T04:44:18.090Z,61.74
2019-04-05T04:46:51.807Z,61.75
2019-04-05T04:49:25.242Z,61.77
2019-04-05T04:51:58.814Z,61.87
2019-04-05T04:54:32.260Z,61.65
2019-04-05T04:57:05.982Z,61.89
2019-04-05T04:59:39.424Z,61.97
2019-04-05T05:02:13.026Z,61.83
2019-04-05T05:04:46.467Z,61.78
2019-04-05T05:07:19.852Z,61.71
2019-04-05T05:09:53.327Z,61.85
2019-04-05T05:12:26.797Z,61.80
2019-04-05T05:15:00.225Z,61.82
2019-04-05T05:17:38.836Z,61.69
2019-04-05T05:20:09.848Z,61.75
2019-04-05T05:22:43.365Z,61.78
2019-04-05T05:25:17.719Z,61.71
2019-04-05T05:27:51.259Z,62.04
2019-04-05T05:30:24.966Z,62.01
2019-04-05T05:32:58.829Z,62.02
2019-04-05T05:35:32.219Z,61.79
2019-04-05T05:38:05.959Z,62.08
2019-04-05T05:40:39.364Z,61.72
2019-04-05T05:43:12.785Z,61.71
2019-04-05T05:45:46.496Z,61.66
2019-04-05T05:48:19.930Z,61.79
2019-04-05T05:50:53.362Z,61.68
2019-04-05T05:53:26.742Z,61.63
2019-04-05T05:56:00.065Z,61.58
2019-04-05T05:58:33.482Z,61.75
2019-04-05T06:01:06.883Z,62.06
2019-04-05T06:03:40.269Z,61.87
2019-04-05T06:06:13.658Z,61.77
2019-04-05T06:08:47.151Z,61.72
2019-04-05T06:11:20.500Z,61.85
2019-04-05T06:13:53.874Z,62.20
2019-04-05T06:16:27.277Z,62.18
2019-04-05T06:19:00.751Z,62.19
2019-04-05T06:21:34.074Z,61.93
2019-04-05T06:24:07.445Z,61.82
2019-04-05T06:26:40.784Z,61.74
2019-04-05T06:29:14.244Z,61.44
2019-04-05T06:31:47.592Z,61.76
2019-04-05T06:34:21.013Z,61.60
2019-04-05T06:36:54.440Z,61.56
2019-04-05T06:39:27.803Z,61.52
2019-04-05T06:42:01.251Z,61.69
2019-04-05T06:44:34.697Z,61.56
2019-04-05T06:47:08.020Z,61.69
2019-04-05T06:49:41.427Z,61.64
2019-04-05T06:52:14.787Z,61.63
2019-04-05T06:54:48.210Z,61.28
2019-04-05T06:57:21.649Z,61.37
2019-04-05T06:59:55.002Z,61.26
2019-04-05T07:02:28.396Z,61.04
2019-04-05T07:05:01.772Z,61.06
2019-04-05T07:07:35.108Z,61.25
2019-04-05T07:10:08.693Z,61.15
2019-04-05T07:12:42.192Z,61.09
2019-04-05T07:15:15.689Z,61.22
2019-04-05T07:17:49.123Z,61.07
2019-04-05T07:20:23.866Z,61.07
2019-04-05T07:22:57.440Z,61.20
2019-04-05T07:25:30.918Z,61.35
2019-04-05T07:28:04.310Z,61.02
2019-04-05T07:30:37.677Z,61.03
2019-04-05T07:33:11.001Z,61.07
2019-04-05T07:35:44.368Z,61.08
2019-04-05T07:38:17.755Z,60.88
2019-04-05T07:40:51.227Z,61.14
2019-04-05T07:43:24.595Z,61.23
2019-04-05T07:45:57.929Z,61.21
2019-04-05T07:48:43.825Z,61.25
2019-04-05T07:51:06.451Z,61.34
2019-04-05T07:53:39.889Z,61.34
2019-04-05T07:56:13.282Z,60.99
2019-04-05T07:58:46.719Z,61.29
2019-04-05T08:01:20.136Z,61.07
2019-04-05T08:03:53.563Z,60.95
2019-04-05T08:06:27.088Z,60.85
2019-04-05T08:09:08.989Z,60.91
2019-04-05T08:11:43.890Z,60.46
2019-04-05T08:14:18.163Z,60.77
2019-04-05T08:16:51.778Z,60.62
2019-04-05T08:19:25.234Z,60.84
2019-04-05T08:21:58.601Z,61.02
2019-04-05T08:24:32.274Z,60.94
2019-04-05T08:27:05.667Z,61.02
2019-04-05T08:29:39.088Z,60.90
2019-04-05T08:32:14.838Z,60.84
2019-04-05T08:34:47.571Z,60.55
2019-04-05T08:37:21.027Z,60.61
2019-04-05T08:39:54.448Z,60.54
2019-04-05T08:42:27.836Z,60.79
2019-04-05T08:45:01.232Z,60.61
2019-04-05T08:47:34.598Z,60.69
2019-04-05T08:50:08.208Z,60.46
2019-04-05T08:52:41.522Z,60.44
2019-04-05T08:55:14.965Z,60.35
2019-04-05T08:57:48.307Z,60.18
2019-04-05T09:00:21.761Z,60.03
2019-04-05T09:02:55.305Z,60.18
2019-04-05T09:05:28.887Z,59.96
2019-04-05T09:08:02.281Z,59.91
2019-04-05T09:10:35.811Z,59.52
2019-04-05T09:13:09.224Z,59.90
2019-04-05T09:15:42.643Z,59.88
2019-04-05T09:18:15.968Z,59.71
2019-04-05T09:20:49.389Z,59.77
2019-04-05T09:23:22.731Z,59.56
2019-04-05T09:25:56.169Z,59.15
2019-04-05T09:28:29.495Z,59.42
2019-04-05T09:31:02.928Z,59.46
2019-04-05T09:33:36.248Z,59.31
2019-04-05T09:36:09.714Z,59.25
2019-04-05T09:38:43.108Z,59.44
2019-04-05T09:41:16.463Z,59.46
2019-04-05T09:43:49.823Z,59.11
2019-04-05T09:46:23.187Z,59.26
2019-04-05T09:48:56.608Z,59.16
2019-04-05T09:51:29.992Z,58.84
2019-04-05T09:54:03.467Z,58.78
2019-04-05T09:56:36.876Z,59.03
2019-04-05T09:59:10.299Z,58.94
2019-04-05T10:01:43.834Z,58.97
2019-04-05T10:04:17.265Z,58.96
2019-04-05T10:06:50.713Z,58.63
2019-04-05T10:09:24.113Z,58.63
2019-04-05T10:11:57.566Z,58.03
2019-04-05T10:14:30.981Z,58.42
2019-04-05T10:17:04.501Z,58.67
2019-04-05T10:19:49.192Z,58.46
2019-04-05T10:22:12.945Z,58.26
2019-04-05T10:24:46.276Z,58.40
2019-04-05T10:27:19.629Z,58.15
2019-04-05T10:29:53.071Z,58.37
2019-04-05T10:32:26.405Z,58.19
2019-04-05T10:34:59.826Z,58.18
2019-04-05T10:37:33.247Z,57.93
2019-04-05T10:40:07.202Z,58.32
2019-04-05T10:42:40.568Z,58.52
2019-04-05T10:45:14.398Z,57.96
2019-04-05T10:47:47.877Z,57.86
2019-04-05T10:50:21.382Z,57.66
2019-04-05T10:52:54.697Z,57.69
2019-04-05T10:55:28.102Z,57.81
2019-04-05T10:58:01.508Z,57.54
2019-04-05T11:00:34.858Z,57.40
2019-04-05T11:03:08.193Z,57.44
2019-04-05T11:05:41.547Z,57.25
2019-04-05T11:08:14.914Z,56.99
2019-04-05T11:10:48.229Z,56.58
2019-04-05T11:13:21.649Z,57.23
2019-04-05T11:15:55.069Z,57.40
2019-04-05T11:18:28.389Z,56.83
2019-04-05T11:21:01.758Z,56.73
2019-04-05T11:23:35.084Z,56.49
2019-04-05T11:26:08.458Z,56.67
2019-04-05T11:28:41.799Z,56.74
2019-04-05T11:31:15.303Z,56.59
2019-04-05T11:33:48.702Z,56.72
2019-04-05T11:36:22.161Z,56.33
2019-04-05T11:38:55.547Z,56.29
2019-04-05T11:41:29.105Z,56.68
2019-04-05T11:44:03.132Z,56.68
2019-04-05T11:46:37.247Z,57.02
2019-04-05T11:49:10.709Z,57.29
2019-04-05T11:51:44.200Z,57.37
2019-04-05T11:54:18.521Z,57.34
2019-04-05T11:56:52.029Z,57.45
2019-04-05T11:59:25.378Z,56.95
2019-04-05T12:02:03.119Z,56.76
2019-04-05T12:04:36.811Z,57.29
2019-04-05T12:07:10.248Z,56.90
2019-04-05T12:09:43.568Z,56.76
2019-04-05T12:12:17.042Z,56.68
2019-04-05T12:14:50.360Z,56.58
2019-04-05T12:17:23.844Z,56.97
2019-04-05T12:19:57.236Z,56.99
2019-04-05T12:22:34.514Z,56.75
2019-04-05T12:25:07.785Z,56.82
2019-04-05T12:27:41.125Z,57.02
2019-04-05T12:30:19.521Z,57.15
2019-04-05T12:32:52.870Z,57.09
2019-04-05T12:35:26.203Z,57.04
2019-04-05T12:37:59.639Z,56.84
2019-04-05T12:40:33.067Z,56.46
2019-04-05T12:43:06.495Z,56.52
2019-04-05T12:45:39.892Z,56.41
2019-04-05T12:48:13.690Z,56.32
2019-04-05T12:51:00.326Z,56.18
2019-04-05T12:53:24.654Z,55.74
2019-04-05T12:55:58.873Z,56.07
2019-04-05T12:58:32.833Z,56.22
2019-04-05T13:01:08.382Z,56.41
2019-04-05T13:03:41.634Z,56.56
2019-04-05T13:06:15.027Z,56.31
2019-04-05T13:08:48.396Z,56.23
2019-04-05T13:11:25.930Z,56.21
2019-04-05T13:13:57.034Z,55.92
2019-04-05T13:16:30.405Z,56.26
2019-04-05T13:19:03.806Z,56.42
2019-04-05T13:21:37.130Z,56.11
2019-04-05T13:24:12.027Z,56.45
2019-04-05T13:26:45.459Z,56.25
2019-04-05T13:29:19.655Z,56.54
2019-04-05T13:31:53.634Z,56.83
2019-04-05T13:34:27.007Z,56.98
2019-04-05T13:37:01.400Z,56.68
2019-04-05T13:39:35.388Z,56.56
2019-04-05T13:42:08.808Z,56.74
2019-04-05T13:44:42.237Z,56.58
2019-04-05T13:47:15.612Z,56.50
2019-04-05T13:49:48.977Z,56.58
2019-04-05T13:52:22.374Z,56.85
2019-04-05T13:54:55.736Z,56.83
2019-04-05T13:57:29.179Z,57.12
2019-04-05T14:00:02.612Z,56.97
2019-04-05T14:02:36.014Z,56.80
2019-04-05T14:05:09.503Z,56.74
2019-04-05T14:07:42.857Z,56.70
2019-04-05T14:10:16.292Z,56.54
2019-04-05T14:12:49.684Z,56.24
2019-04-05T14:15:23.120Z,55.80
2019-04-05T14:17:56.470Z,56.33
2019-04-05T14:20:29.921Z,56.11
2019-04-05T14:23:03.426Z,55.81
2019-04-05T14:25:36.919Z,55.92
2019-04-05T14:28:10.257Z,56.11
2019-04-05T14:30:43.621Z,55.96
2019-04-05T14:33:17.016Z,55.68
2019-04-05T14:35:50.391Z,55.80
2019-04-05T14:38:23.822Z,55.45
2019-04-05T14:40:57.150Z,55.71
2019-04-05T14:43:30.476Z,55.62
2019-04-05T14:46:03.995Z,55.87
2019-04-05T14:48:37.323Z,56.05
2019-04-05T14:51:10.822Z,56.06
2019-04-05T14:53:44.366Z,56.59
2019-04-05T14:56:18.097Z,56.49
2019-04-05T14:58:51.568Z,56.49
2019-04-05T15:01:24.955Z,56.13
2019-04-05T15:03:58.331Z,56.24
2019-04-05T15:06:31.685Z,56.15
2019-04-05T15:09:06.506Z,56.34
2019-04-05T15:11:39.900Z,56.39
2019-04-05T15:14:13.248Z,56.54
2019-04-05T15:16:46.574Z,56.48
2019-04-05T15:19:19.946Z,56.50
2019-04-05T15:22:04.863Z,56.60
2019-04-05T15:24:28.396Z,56.75
2019-04-05T15:27:01.748Z,56.73
2019-04-05T15:29:35.135Z,56.82
2019-04-05T15:32:08.536Z,56.77
2019-04-05T15:34:42.048Z,56.75
2019-04-05T15:37:16.123Z,56.86
2019-04-05T15:39:49.828Z,56.68
2019-04-05T15:42:23.213Z,56.23
2019-04-05T15:44:56.587Z,56.52
2019-04-05T15:47:31.954Z,56.64
2019-04-05T15:50:07.324Z,56.64
2019-04-05T15:52:40.645Z,56.62
2019-04-05T15:55:14.081Z,56.49
2019-04-05T15:57:47.488Z,56.92
2019-04-05T16:00:39.028Z,56.79
2019-04-05T16:03:13.376Z,57.04
2019-04-05T16:05:46.878Z,57.06
2019-04-05T16:08:20.278Z,57.18
2019-04-05T16:10:53.644Z,57.30
2019-04-05T16:13:27.050Z,56.92
2019-04-05T16:16:00.467Z,56.90
2019-04-05T16:18:33.800Z,57.17
2019-04-05T16:21:07.149Z,57.13
2019-04-05T16:23:40.493Z,57.34
2019-04-05T16:26:13.839Z,57.18
2019-04-05T16:28:47.184Z,57.25
2019-04-05T16:31:20.611Z,57.33
2019-04-05T16:33:54.045Z,57.30
2019-04-05T16:36:27.551Z,57.30
2019-04-05T16:39:02.601Z,57.36
2019-04-05T16:41:35.953Z,57.53
2019-04-05T16:44:09.378Z,57.46
2019-04-05T16:46:42.749Z,57.77
2019-04-05T16:49:16.097Z,57.31
2019-04-05T16:51:49.484Z,57.52
2019-04-05T16:54:22.804Z,57.59
2019-04-05T16:56:56.248Z,57.29
2019-04-05T16:59:29.569Z,57.29
2019-04-05T17:02:02.937Z,57.51
2019-04-05T17:04:36.311Z,57.54
2019-04-05T17:07:09.662Z,57.72
2019-04-05T17:09:42.980Z,57.71
2019-04-05T17:12:16.349Z,57.52
2019-04-05T17:14:49.735Z,57.56
2019-04-05T17:17:23.190Z,57.82
2019-04-05T17:19:56.524Z,57.69
2019-04-05T17:22:29.971Z,57.74
2019-04-05T17:25:04.543Z,57.70
2019-04-05T17:27:37.987Z,57.97
2019-04-05T17:30:11.384Z,57.75
2019-04-05T17:32:44.775Z,57.82
2019-04-05T17:35:19.580Z,57.74
2019-04-05T17:37:52.938Z,57.80
2019-04-05T17:40:26.282Z,57.73
2019-04-05T17:42:59.718Z,57.70
2019-04-05T17:45:33.038Z,57.88
2019-04-05T17:48:06.487Z,57.76
2019-04-05T17:50:39.814Z,57.79
2019-04-05T17:53:13.607Z,57.87
2019-04-05T17:55:47.169Z,57.92
2019-04-05T17:58:20.605Z,57.96
2019-04-05T18:00:54.137Z,57.88
2019-04-05T18:03:27.602Z,57.93
2019-04-05T18:06:00.961Z,58.03
2019-04-05T18:08:34.284Z,58.03
2019-04-05T18:11:07.632Z,57.95
2019-04-05T18:13:40.966Z,58.09
2019-04-05T18:16:14.415Z,58.07
2019-04-05T18:18:47.755Z,57.98
2019-04-05T18:21:21.240Z,57.84
2019-04-05T18:23:54.561Z,57.87
2019-04-05T18:26:27.926Z,57.85
2019-04-05T18:29:01.345Z,58.02
2019-04-05T18:31:34.936Z,58.09
2019-04-05T18:34:08.384Z,58.08
2019-04-05T18:36:41.781Z,58.03
2019-04-05T18:39:15.360Z,58.02
2019-04-05T18:41:48.711Z,58.17
2019-04-05T18:44:22.039Z,58.13
2019-04-05T18:46:55.448Z,58.18
2019-04-05T18:49:28.841Z,58.30
2019-04-05T18:52:02.201Z,58.28
2019-04-05T18:54:35.523Z,58.27
2019-04-05T18:57:08.892Z,58.30
2019-04-05T18:59:42.203Z,58.29
2019-04-05T19:02:15.551Z,58.28
2019-04-05T19:04:49.017Z,58.22
2019-04-05T19:07:22.521Z,58.09
2019-04-05T19:09:55.891Z,58.30
2019-04-05T19:12:29.311Z,58.65
2019-04-05T19:15:02.856Z,58.51
2019-04-05T19:17:36.187Z,58.55
2019-04-05T19:20:09.963Z,58.62
2019-04-05T19:22:43.413Z,58.52
2019-04-05T19:25:16.887Z,58.52
2019-04-05T19:27:50.259Z,58.50
2019-04-05T19:51:02.688Z,58.84
2019-04-05T19:53:36.134Z,58.81
2019-04-05T19:56:09.536Z,58.71
2019-04-05T19:58:42.973Z,58.64
2019-04-05T20:01:16.778Z,58.73
2019-04-05T20:03:50.179Z,58.87
2019-04-05T20:06:23.573Z,58.85
2019-04-05T20:08:56.941Z,58.84
2019-04-05T20:11:30.290Z,58.79
2019-04-05T20:14:03.716Z,58.67
2019-04-05T20:16:37.124Z,58.80
2019-04-05T20:19:10.490Z,58.99
2019-04-05T20:21:43.853Z,58.99
2019-04-05T20:24:17.219Z,58.95
2019-04-05T20:26:50.773Z,58.78
2019-04-05T20:29:24.239Z,59.12
2019-04-05T20:31:57.659Z,58.97
2019-04-05T20:34:31.044Z,59.10
2019-04-05T20:37:04.439Z,59.19
2019-04-05T20:39:37.920Z,59.13
2019-04-05T20:42:11.270Z,59.04
2019-04-05T20:44:44.740Z,58.90
2019-04-05T20:47:18.166Z,59.23
2019-04-05T20:49:51.585Z,59.51
2019-04-05T20:52:24.978Z,59.29
2019-04-05T20:54:58.340Z,59.18
2019-04-05T20:57:31.691Z,59.05
2019-04-05T21:00:07.478Z,58.98
2019-04-05T21:02:40.995Z,59.01
2019-04-05T21:05:24.585Z,58.96
2019-04-05T21:07:49.477Z,58.99
2019-04-05T21:10:22.876Z,59.08
2019-04-05T21:12:56.267Z,59.16
2019-04-05T21:15:29.643Z,59.17
2019-04-05T21:18:02.981Z,60.17
2019-04-05T21:20:36.406Z,59.97
2019-04-05T21:23:09.867Z,59.73
2019-04-05T21:25:43.341Z,59.52
2019-04-05T21:28:16.677Z,59.32
2019-04-05T21:30:50.122Z,59.39
2019-04-05T21:33:23.451Z,59.33
2019-04-05T21:35:56.806Z,59.26
2019-04-05T21:38:30.319Z,59.33
2019-04-05T21:41:03.714Z,59.10
2019-04-05T21:43:37.130Z,59.16
2019-04-05T21:46:10.847Z,59.10
2019-04-05T21:48:44.304Z,59.17
2019-04-05T21:51:17.755Z,59.41
2019-04-05T21:53:51.212Z,59.36
2019-04-05T21:56:24.714Z,59.34
2019-04-05T21:58:58.102Z,59.24
2019-04-05T22:01:31.536Z,59.15
2019-04-05T22:04:05.095Z,59.01
2019-04-05T22:06:38.533Z,59.30
2019-04-05T22:09:12.236Z,59.58
2019-04-05T22:11:45.608Z,59.63
2019-04-05T22:14:19.075Z,59.48
2019-04-05T22:16:52.527Z,59.25
2019-04-05T22:19:25.983Z,59.38
2019-04-05T22:21:59.317Z,59.59
2019-04-05T22:24:32.765Z,59.17
2019-04-05T22:27:06.134Z,59.14
2019-04-05T22:29:39.680Z,59.09
2019-04-05T22:32:13.051Z,59.26
2019-04-05T22:34:46.587Z,59.07
2019-04-05T22:37:20.095Z,59.04
2019-04-05T22:39:54.221Z,58.84
2019-04-05T22:42:27.557Z,58.86
2019-04-05T22:45:00.909Z,59.12
2019-04-05T22:47:34.511Z,59.00
2019-04-05T22:50:08.200Z,58.90
2019-04-05T22:52:41.587Z,59.02
2019-04-05T22:55:14.946Z,59.15
2019-04-05T22:57:48.268Z,59.12
2019-04-05T23:00:21.691Z,59.00
2019-04-05T23:02:56.042Z,58.99
2019-04-05T23:05:29.592Z,58.87
2019-04-05T23:08:03.102Z,59.02
2019-04-05T23:10:36.553Z,58.97
2019-04-05T23:13:10.349Z,58.93
2019-04-05T23:15:43.922Z,58.96
2019-04-05T23:18:18.070Z,59.16
2019-04-05T23:20:51.812Z,59.34
2019-04-05T23:23:25.543Z,59.40
2019-04-05T23:25:59.425Z,59.50
2019-04-05T23:28:33.117Z,59.37
2019-04-05T23:31:06.840Z,59.42
2019-04-05T23:33:40.461Z,59.16
2019-04-05T23:36:13.889Z,59.21
2019-04-05T23:38:47.495Z,59.28
2019-04-05T23:41:21.005Z,59.45
2019-04-05T23:43:54.919Z,59.40
2019-04-05T23:46:28.577Z,59.47
2019-04-05T23:49:02.128Z,59.43
2019-04-05T23:51:35.778Z,59.49
2019-04-05T23:54:11.154Z,59.36
2019-04-05T23:56:44.839Z,59.30
2019-04-05T23:59:18.357Z,59.30
